sensor_id;sensor_type;location;lat;lon;timestamp;temperature;humidity
22290;DHT22;11313;50.116;8.424;2023-04-03T00:00:59;24.20;43.80
22290;DHT22;11313;50.116;8.424;2023-04-03T00:03:25;24.20;43.80
22290;DHT22;11313;50.116;8.424;2023-04-03T00:05:50;24.20;43.80
22290;DHT22;11313;50.116;8.424;2023-04-03T00:08:16;24.20;43.80
22290;DHT22;11313;50.116;8.424;2023-04-03T00:10:42;24.20;43.70
22290;DHT22;11313;50.116;8.424;2023-04-03T00:13:08;24.20;43.70
22290;DHT22;11313;50.116;8.424;2023-04-03T00:15:34;24.20;43.70
22290;DHT22;11313;50.116;8.424;2023-04-03T00:18:00;24.20;43.70
22290;DHT22;11313;50.116;8.424;2023-04-03T00:20:26;24.20;43.70
22290;DHT22;11313;50.116;8.424;2023-04-03T00:22:53;24.20;43.70
22290;DHT22;11313;50.116;8.424;2023-04-03T00:25:18;24.20;43.70
22290;DHT22;11313;50.116;8.424;2023-04-03T00:27:44;24.20;43.60
22290;DHT22;11313;50.116;8.424;2023-04-03T00:30:12;24.20;43.60
22290;DHT22;11313;50.116;8.424;2023-04-03T00:32:38;24.20;43.60
22290;DHT22;11313;50.116;8.424;2023-04-03T00:35:04;24.30;43.60
22290;DHT22;11313;50.116;8.424;2023-04-03T00:37:30;24.30;43.60
22290;DHT22;11313;50.116;8.424;2023-04-03T00:39:56;24.30;43.60
22290;DHT22;11313;50.116;8.424;2023-04-03T00:42:21;24.30;43.60
22290;DHT22;11313;50.116;8.424;2023-04-03T00:47:15;24.30;43.50
22290;DHT22;11313;50.116;8.424;2023-04-03T00:49:42;24.30;43.50
22290;DHT22;11313;50.116;8.424;2023-04-03T00:52:11;24.30;43.40
22290;DHT22;11313;50.116;8.424;2023-04-03T00:54:39;24.40;43.40
22290;DHT22;11313;50.116;8.424;2023-04-03T00:57:06;24.30;43.40
22290;DHT22;11313;50.116;8.424;2023-04-03T00:59:35;24.40;43.40
22290;DHT22;11313;50.116;8.424;2023-04-03T01:02:03;24.40;43.40
22290;DHT22;11313;50.116;8.424;2023-04-03T01:07:07;24.40;43.40
22290;DHT22;11313;50.116;8.424;2023-04-03T01:09:34;24.40;43.40
22290;DHT22;11313;50.116;8.424;2023-04-03T01:12:19;24.40;43.30
22290;DHT22;11313;50.116;8.424;2023-04-03T01:14:48;24.40;43.30
22290;DHT22;11313;50.116;8.424;2023-04-03T01:17:26;24.40;43.30
22290;DHT22;11313;50.116;8.424;2023-04-03T01:25:34;24.40;43.20
22290;DHT22;11313;50.116;8.424;2023-04-03T01:28:00;24.40;43.20
22290;DHT22;11313;50.116;8.424;2023-04-03T01:30:31;24.50;43.20
22290;DHT22;11313;50.116;8.424;2023-04-03T01:32:57;24.50;43.20
22290;DHT22;11313;50.116;8.424;2023-04-03T01:35:22;24.50;43.20
22290;DHT22;11313;50.116;8.424;2023-04-03T01:37:48;24.50;43.20
22290;DHT22;11313;50.116;8.424;2023-04-03T01:40:14;24.50;43.20
22290;DHT22;11313;50.116;8.424;2023-04-03T01:42:39;24.50;43.10
22290;DHT22;11313;50.116;8.424;2023-04-03T01:45:05;24.50;43.10
22290;DHT22;11313;50.116;8.424;2023-04-03T01:47:31;24.50;43.10
22290;DHT22;11313;50.116;8.424;2023-04-03T01:49:56;24.50;43.20
22290;DHT22;11313;50.116;8.424;2023-04-03T01:52:22;24.50;43.10
22290;DHT22;11313;50.116;8.424;2023-04-03T01:54:47;24.50;43.10
22290;DHT22;11313;50.116;8.424;2023-04-03T01:57:13;24.50;43.10
22290;DHT22;11313;50.116;8.424;2023-04-03T01:59:40;24.50;43.10
22290;DHT22;11313;50.116;8.424;2023-04-03T02:02:06;24.50;43.10
22290;DHT22;11313;50.116;8.424;2023-04-03T02:04:31;24.50;43.10
22290;DHT22;11313;50.116;8.424;2023-04-03T02:06:57;24.50;43.10
22290;DHT22;11313;50.116;8.424;2023-04-03T02:09:22;24.50;43.10
22290;DHT22;11313;50.116;8.424;2023-04-03T02:11:48;24.50;43.10
22290;DHT22;11313;50.116;8.424;2023-04-03T02:14:13;24.50;43.10
22290;DHT22;11313;50.116;8.424;2023-04-03T02:16:39;24.50;43.10
22290;DHT22;11313;50.116;8.424;2023-04-03T02:19:04;24.50;43.10
22290;DHT22;11313;50.116;8.424;2023-04-03T02:21:30;24.50;43.10
22290;DHT22;11313;50.116;8.424;2023-04-03T02:23:55;24.50;43.10
22290;DHT22;11313;50.116;8.424;2023-04-03T02:26:21;24.50;43.10
22290;DHT22;11313;50.116;8.424;2023-04-03T02:28:47;24.50;43.10
22290;DHT22;11313;50.116;8.424;2023-04-03T02:31:12;24.50;43.10
22290;DHT22;11313;50.116;8.424;2023-04-03T02:33:38;24.50;43.10
22290;DHT22;11313;50.116;8.424;2023-04-03T02:36:05;24.40;43.10
22290;DHT22;11313;50.116;8.424;2023-04-03T02:38:31;24.40;43.00
22290;DHT22;11313;50.116;8.424;2023-04-03T02:41:05;24.40;43.10
22290;DHT22;11313;50.116;8.424;2023-04-03T02:43:30;24.40;43.00
22290;DHT22;11313;50.116;8.424;2023-04-03T02:45:56;24.40;43.10
22290;DHT22;11313;50.116;8.424;2023-04-03T02:48:22;24.40;43.10
22290;DHT22;11313;50.116;8.424;2023-04-03T02:50:48;24.40;43.10
22290;DHT22;11313;50.116;8.424;2023-04-03T02:53:13;24.40;43.10
22290;DHT22;11313;50.116;8.424;2023-04-03T02:55:39;24.40;43.10
22290;DHT22;11313;50.116;8.424;2023-04-03T02:58:04;24.40;43.10
22290;DHT22;11313;50.116;8.424;2023-04-03T03:00:30;24.40;43.10
22290;DHT22;11313;50.116;8.424;2023-04-03T03:02:56;24.40;43.10
22290;DHT22;11313;50.116;8.424;2023-04-03T03:05:21;24.40;43.20
22290;DHT22;11313;50.116;8.424;2023-04-03T03:07:47;24.40;43.10
22290;DHT22;11313;50.116;8.424;2023-04-03T03:10:13;24.40;43.10
22290;DHT22;11313;50.116;8.424;2023-04-03T03:12:38;24.40;43.10
22290;DHT22;11313;50.116;8.424;2023-04-03T03:15:04;24.40;43.80
22290;DHT22;11313;50.116;8.424;2023-04-03T03:17:30;24.40;43.10
22290;DHT22;11313;50.116;8.424;2023-04-03T03:19:55;24.40;43.20
22290;DHT22;11313;50.116;8.424;2023-04-03T03:22:21;24.30;43.20
22290;DHT22;11313;50.116;8.424;2023-04-03T03:24:47;24.30;43.20
22290;DHT22;11313;50.116;8.424;2023-04-03T03:27:13;24.40;43.20
22290;DHT22;11313;50.116;8.424;2023-04-03T03:29:38;24.30;43.20
22290;DHT22;11313;50.116;8.424;2023-04-03T03:32:04;24.30;43.20
22290;DHT22;11313;50.116;8.424;2023-04-03T03:34:29;24.30;43.20
22290;DHT22;11313;50.116;8.424;2023-04-03T03:36:55;24.30;43.20
22290;DHT22;11313;50.116;8.424;2023-04-03T03:39:20;24.30;43.20
22290;DHT22;11313;50.116;8.424;2023-04-03T03:41:46;24.30;43.20
22290;DHT22;11313;50.116;8.424;2023-04-03T03:44:12;24.30;43.20
22290;DHT22;11313;50.116;8.424;2023-04-03T03:46:38;24.30;43.20
22290;DHT22;11313;50.116;8.424;2023-04-03T03:49:03;24.30;43.20
22290;DHT22;11313;50.116;8.424;2023-04-03T03:51:29;24.30;43.30
22290;DHT22;11313;50.116;8.424;2023-04-03T03:53:54;24.30;43.20
22290;DHT22;11313;50.116;8.424;2023-04-03T03:56:20;24.30;43.20
22290;DHT22;11313;50.116;8.424;2023-04-03T03:58:45;24.30;43.20
22290;DHT22;11313;50.116;8.424;2023-04-03T04:01:11;24.30;43.20
22290;DHT22;11313;50.116;8.424;2023-04-03T04:03:37;24.30;43.20
22290;DHT22;11313;50.116;8.424;2023-04-03T04:06:02;24.30;43.20
22290;DHT22;11313;50.116;8.424;2023-04-03T04:08:28;24.20;43.10
22290;DHT22;11313;50.116;8.424;2023-04-03T04:10:53;24.30;43.20
22290;DHT22;11313;50.116;8.424;2023-04-03T04:13:19;24.30;43.10
22290;DHT22;11313;50.116;8.424;2023-04-03T04:15:45;24.30;43.10
22290;DHT22;11313;50.116;8.424;2023-04-03T04:18:10;24.30;43.20
22290;DHT22;11313;50.116;8.424;2023-04-03T04:20:36;24.30;43.20
22290;DHT22;11313;50.116;8.424;2023-04-03T04:23:01;24.30;43.20
22290;DHT22;11313;50.116;8.424;2023-04-03T04:25:27;24.30;43.20
22290;DHT22;11313;50.116;8.424;2023-04-03T04:27:52;24.30;43.10
22290;DHT22;11313;50.116;8.424;2023-04-03T04:30:18;24.40;43.10
22290;DHT22;11313;50.116;8.424;2023-04-03T04:32:43;24.40;43.10
22290;DHT22;11313;50.116;8.424;2023-04-03T04:35:09;24.40;43.10
22290;DHT22;11313;50.116;8.424;2023-04-03T04:37:34;24.40;43.10
22290;DHT22;11313;50.116;8.424;2023-04-03T04:40:00;24.40;43.00
22290;DHT22;11313;50.116;8.424;2023-04-03T04:42:26;24.40;43.00
22290;DHT22;11313;50.116;8.424;2023-04-03T04:44:51;24.40;42.90
22290;DHT22;11313;50.116;8.424;2023-04-03T04:47:16;24.40;42.90
22290;DHT22;11313;50.116;8.424;2023-04-03T04:49:42;24.40;42.90
22290;DHT22;11313;50.116;8.424;2023-04-03T04:52:08;24.40;42.80
22290;DHT22;11313;50.116;8.424;2023-04-03T04:54:33;24.40;42.90
22290;DHT22;11313;50.116;8.424;2023-04-03T04:56:58;24.40;42.90
22290;DHT22;11313;50.116;8.424;2023-04-03T04:59:24;24.40;42.90
22290;DHT22;11313;50.116;8.424;2023-04-03T05:01:50;24.50;42.90
22290;DHT22;11313;50.116;8.424;2023-04-03T05:04:15;24.50;42.90
22290;DHT22;11313;50.116;8.424;2023-04-03T05:06:41;24.50;42.90
22290;DHT22;11313;50.116;8.424;2023-04-03T05:09:06;24.50;42.80
22290;DHT22;11313;50.116;8.424;2023-04-03T05:11:32;24.50;42.80
22290;DHT22;11313;50.116;8.424;2023-04-03T05:13:58;24.50;42.80
22290;DHT22;11313;50.116;8.424;2023-04-03T05:16:23;24.50;42.80
22290;DHT22;11313;50.116;8.424;2023-04-03T05:18:49;24.50;42.70
22290;DHT22;11313;50.116;8.424;2023-04-03T05:21:14;24.50;42.70
22290;DHT22;11313;50.116;8.424;2023-04-03T05:23:40;24.50;43.30
22290;DHT22;11313;50.116;8.424;2023-04-03T05:26:06;24.50;42.70
22290;DHT22;11313;50.116;8.424;2023-04-03T05:28:31;24.50;42.60
22290;DHT22;11313;50.116;8.424;2023-04-03T05:30:58;24.50;42.70
22290;DHT22;11313;50.116;8.424;2023-04-03T05:33:24;24.50;42.60
22290;DHT22;11313;50.116;8.424;2023-04-03T05:35:51;24.50;42.60
22290;DHT22;11313;50.116;8.424;2023-04-03T05:38:17;24.50;42.70
22290;DHT22;11313;50.116;8.424;2023-04-03T05:40:42;24.50;42.60
22290;DHT22;11313;50.116;8.424;2023-04-03T05:43:08;24.50;42.60
22290;DHT22;11313;50.116;8.424;2023-04-03T05:45:33;24.50;42.60
22290;DHT22;11313;50.116;8.424;2023-04-03T05:47:59;24.50;42.70
22290;DHT22;11313;50.116;8.424;2023-04-03T05:50:25;24.50;42.60
22290;DHT22;11313;50.116;8.424;2023-04-03T05:52:52;24.50;42.70
22290;DHT22;11313;50.116;8.424;2023-04-03T05:55:19;24.50;42.70
22290;DHT22;11313;50.116;8.424;2023-04-03T05:57:45;24.50;42.80
22290;DHT22;11313;50.116;8.424;2023-04-03T06:00:13;24.50;42.90
22290;DHT22;11313;50.116;8.424;2023-04-03T06:02:40;24.50;43.10
22290;DHT22;11313;50.116;8.424;2023-04-03T06:05:07;24.50;43.20
22290;DHT22;11313;50.116;8.424;2023-04-03T06:07:34;24.50;43.30
22290;DHT22;11313;50.116;8.424;2023-04-03T06:09:59;24.50;43.40
22290;DHT22;11313;50.116;8.424;2023-04-03T06:12:25;24.50;43.50
22290;DHT22;11313;50.116;8.424;2023-04-03T06:14:51;24.50;43.60
22290;DHT22;11313;50.116;8.424;2023-04-03T06:17:17;24.50;43.80
22290;DHT22;11313;50.116;8.424;2023-04-03T06:19:44;24.50;43.80
22290;DHT22;11313;50.116;8.424;2023-04-03T06:22:09;24.50;43.90
22290;DHT22;11313;50.116;8.424;2023-04-03T06:24:37;24.50;43.80
22290;DHT22;11313;50.116;8.424;2023-04-03T06:27:02;24.50;43.80
22290;DHT22;11313;50.116;8.424;2023-04-03T06:29:28;24.50;43.80
22290;DHT22;11313;50.116;8.424;2023-04-03T06:31:53;24.50;43.80
22290;DHT22;11313;50.116;8.424;2023-04-03T06:34:19;24.50;43.70
22290;DHT22;11313;50.116;8.424;2023-04-03T06:36:45;24.50;43.70
22290;DHT22;11313;50.116;8.424;2023-04-03T06:39:21;24.50;43.70
22290;DHT22;11313;50.116;8.424;2023-04-03T06:41:48;24.50;43.70
22290;DHT22;11313;50.116;8.424;2023-04-03T06:44:13;24.50;43.60
22290;DHT22;11313;50.116;8.424;2023-04-03T06:46:41;24.50;43.70
22290;DHT22;11313;50.116;8.424;2023-04-03T06:49:07;24.50;43.60
22290;DHT22;11313;50.116;8.424;2023-04-03T06:51:33;24.50;43.60
22290;DHT22;11313;50.116;8.424;2023-04-03T06:54:00;24.50;43.60
22290;DHT22;11313;50.116;8.424;2023-04-03T06:56:26;24.50;43.60
22290;DHT22;11313;50.116;8.424;2023-04-03T06:58:53;24.50;43.60
22290;DHT22;11313;50.116;8.424;2023-04-03T07:01:20;24.40;43.50
22290;DHT22;11313;50.116;8.424;2023-04-03T07:03:47;24.50;43.60
22290;DHT22;11313;50.116;8.424;2023-04-03T07:06:14;24.50;43.50
22290;DHT22;11313;50.116;8.424;2023-04-03T07:08:41;24.50;43.60
22290;DHT22;11313;50.116;8.424;2023-04-03T07:11:08;24.50;43.50
22290;DHT22;11313;50.116;8.424;2023-04-03T07:13:34;24.50;43.50
22290;DHT22;11313;50.116;8.424;2023-04-03T07:16:00;24.50;43.60
22290;DHT22;11313;50.116;8.424;2023-04-03T07:18:26;24.50;43.50
22290;DHT22;11313;50.116;8.424;2023-04-03T07:20:52;24.50;43.40
22290;DHT22;11313;50.116;8.424;2023-04-03T07:23:18;24.50;43.40
22290;DHT22;11313;50.116;8.424;2023-04-03T07:25:45;24.50;43.40
22290;DHT22;11313;50.116;8.424;2023-04-03T07:28:11;24.50;43.40
22290;DHT22;11313;50.116;8.424;2023-04-03T07:30:48;24.50;43.40
22290;DHT22;11313;50.116;8.424;2023-04-03T07:33:15;24.50;43.40
22290;DHT22;11313;50.116;8.424;2023-04-03T07:35:41;24.40;43.30
22290;DHT22;11313;50.116;8.424;2023-04-03T07:38:07;24.50;43.30
22290;DHT22;11313;50.116;8.424;2023-04-03T07:40:33;24.50;43.30
22290;DHT22;11313;50.116;8.424;2023-04-03T07:42:59;24.50;43.20
22290;DHT22;11313;50.116;8.424;2023-04-03T07:45:25;24.50;43.20
22290;DHT22;11313;50.116;8.424;2023-04-03T07:47:50;24.50;43.10
22290;DHT22;11313;50.116;8.424;2023-04-03T07:50:17;24.50;43.10
22290;DHT22;11313;50.116;8.424;2023-04-03T07:52:42;24.50;43.10
22290;DHT22;11313;50.116;8.424;2023-04-03T07:55:08;24.50;43.10
22290;DHT22;11313;50.116;8.424;2023-04-03T07:57:34;24.50;43.00
22290;DHT22;11313;50.116;8.424;2023-04-03T08:00:00;24.50;43.00
22290;DHT22;11313;50.116;8.424;2023-04-03T08:02:26;24.50;43.00
22290;DHT22;11313;50.116;8.424;2023-04-03T08:04:52;24.50;43.00
22290;DHT22;11313;50.116;8.424;2023-04-03T08:07:17;24.50;43.00
22290;DHT22;11313;50.116;8.424;2023-04-03T08:09:43;24.50;42.90
22290;DHT22;11313;50.116;8.424;2023-04-03T08:12:10;24.50;42.90
22290;DHT22;11313;50.116;8.424;2023-04-03T08:14:36;24.50;42.80
22290;DHT22;11313;50.116;8.424;2023-04-03T08:17:02;24.50;42.80
22290;DHT22;11313;50.116;8.424;2023-04-03T08:19:30;24.50;42.80
22290;DHT22;11313;50.116;8.424;2023-04-03T08:21:56;24.60;42.80
22290;DHT22;11313;50.116;8.424;2023-04-03T08:24:24;24.60;42.80
22290;DHT22;11313;50.116;8.424;2023-04-03T08:26:49;24.60;42.70
22290;DHT22;11313;50.116;8.424;2023-04-03T08:29:15;24.60;42.70
22290;DHT22;11313;50.116;8.424;2023-04-03T08:31:41;24.60;42.70
22290;DHT22;11313;50.116;8.424;2023-04-03T08:34:06;24.60;42.60
22290;DHT22;11313;50.116;8.424;2023-04-03T08:36:31;24.60;42.60
22290;DHT22;11313;50.116;8.424;2023-04-03T08:38:57;24.60;42.60
22290;DHT22;11313;50.116;8.424;2023-04-03T08:41:34;24.70;42.60
22290;DHT22;11313;50.116;8.424;2023-04-03T08:44:18;24.70;42.60
22290;DHT22;11313;50.116;8.424;2023-04-03T08:47:02;24.70;42.60
22290;DHT22;11313;50.116;8.424;2023-04-03T08:52:36;24.70;42.40
22290;DHT22;11313;50.116;8.424;2023-04-03T08:55:31;24.70;42.40
22290;DHT22;11313;50.116;8.424;2023-04-03T08:58:09;24.70;42.40
22290;DHT22;11313;50.116;8.424;2023-04-03T09:00:45;24.70;42.30
22290;DHT22;11313;50.116;8.424;2023-04-03T09:03:20;24.70;42.30
22290;DHT22;11313;50.116;8.424;2023-04-03T09:10:46;24.70;42.30
22290;DHT22;11313;50.116;8.424;2023-04-03T09:14:01;24.70;42.30
22290;DHT22;11313;50.116;8.424;2023-04-03T09:18:59;24.70;42.30
22290;DHT22;11313;50.116;8.424;2023-04-03T09:21:39;24.70;42.20
22290;DHT22;11313;50.116;8.424;2023-04-03T09:24:09;24.80;42.30
22290;DHT22;11313;50.116;8.424;2023-04-03T09:26:56;24.70;42.30
22290;DHT22;11313;50.116;8.424;2023-04-03T09:29:25;24.70;42.20
22290;DHT22;11313;50.116;8.424;2023-04-03T09:31:56;24.70;42.20
22290;DHT22;11313;50.116;8.424;2023-04-03T09:34:28;24.70;42.20
22290;DHT22;11313;50.116;8.424;2023-04-03T09:36:57;24.80;42.20
22290;DHT22;11313;50.116;8.424;2023-04-03T09:39:25;24.70;42.20
22290;DHT22;11313;50.116;8.424;2023-04-03T09:41:58;24.70;42.20
22290;DHT22;11313;50.116;8.424;2023-04-03T09:44:26;24.70;42.20
22290;DHT22;11313;50.116;8.424;2023-04-03T09:46:52;24.70;42.20
22290;DHT22;11313;50.116;8.424;2023-04-03T09:49:18;24.70;42.20
22290;DHT22;11313;50.116;8.424;2023-04-03T09:51:45;24.70;42.10
22290;DHT22;11313;50.116;8.424;2023-04-03T09:54:37;24.70;42.10
22290;DHT22;11313;50.116;8.424;2023-04-03T09:57:10;24.70;42.10
22290;DHT22;11313;50.116;8.424;2023-04-03T10:02:22;24.70;42.10
22290;DHT22;11313;50.116;8.424;2023-04-03T10:04:49;24.70;42.20
22290;DHT22;11313;50.116;8.424;2023-04-03T10:07:35;24.70;42.00
22290;DHT22;11313;50.116;8.424;2023-04-03T10:12:39;24.70;41.90
22290;DHT22;11313;50.116;8.424;2023-04-03T10:15:15;24.70;41.80
22290;DHT22;11313;50.116;8.424;2023-04-03T10:17:59;24.60;41.60
22290;DHT22;11313;50.116;8.424;2023-04-03T10:23:19;24.60;41.50
22290;DHT22;11313;50.116;8.424;2023-04-03T10:26:11;24.60;41.60
22290;DHT22;11313;50.116;8.424;2023-04-03T10:29:09;24.60;41.70
22290;DHT22;11313;50.116;8.424;2023-04-03T10:34:33;24.70;41.60
22290;DHT22;11313;50.116;8.424;2023-04-03T10:37:44;24.70;41.70
22290;DHT22;11313;50.116;8.424;2023-04-03T10:40:27;24.70;41.60
22290;DHT22;11313;50.116;8.424;2023-04-03T10:43:09;24.70;41.70
22290;DHT22;11313;50.116;8.424;2023-04-03T10:46:00;24.70;41.60
22290;DHT22;11313;50.116;8.424;2023-04-03T10:54:57;24.70;41.70
22290;DHT22;11313;50.116;8.424;2023-04-03T10:57:24;24.70;41.70
22290;DHT22;11313;50.116;8.424;2023-04-03T10:59:59;24.70;41.70
22290;DHT22;11313;50.116;8.424;2023-04-03T11:02:30;24.70;41.70
22290;DHT22;11313;50.116;8.424;2023-04-03T11:08:36;24.70;41.80
22290;DHT22;11313;50.116;8.424;2023-04-03T11:11:08;24.60;41.70
22290;DHT22;11313;50.116;8.424;2023-04-03T11:14:08;24.60;41.80
22290;DHT22;11313;50.116;8.424;2023-04-03T11:16:33;24.60;41.70
22290;DHT22;11313;50.116;8.424;2023-04-03T11:19:18;24.60;41.70
22290;DHT22;11313;50.116;8.424;2023-04-03T11:24:32;24.60;41.70
22290;DHT22;11313;50.116;8.424;2023-04-03T11:27:00;24.60;41.70
22290;DHT22;11313;50.116;8.424;2023-04-03T11:29:36;24.60;41.70
22290;DHT22;11313;50.116;8.424;2023-04-03T11:32:32;24.60;41.70
22290;DHT22;11313;50.116;8.424;2023-04-03T11:35:04;24.60;41.70
22290;DHT22;11313;50.116;8.424;2023-04-03T11:37:48;24.60;41.70
22290;DHT22;11313;50.116;8.424;2023-04-03T11:42:42;24.60;41.80
22290;DHT22;11313;50.116;8.424;2023-04-03T11:47:54;24.60;41.70
22290;DHT22;11313;50.116;8.424;2023-04-03T11:50:39;24.60;41.80
22290;DHT22;11313;50.116;8.424;2023-04-03T12:13:34;24.50;41.80
22290;DHT22;11313;50.116;8.424;2023-04-03T12:16:00;24.50;41.80
22290;DHT22;11313;50.116;8.424;2023-04-03T12:21:11;24.50;41.80
22290;DHT22;11313;50.116;8.424;2023-04-03T12:29:36;24.50;41.80
22290;DHT22;11313;50.116;8.424;2023-04-03T12:48:58;24.50;42.00
22290;DHT22;11313;50.116;8.424;2023-04-03T12:51:45;24.50;42.00
22290;DHT22;11313;50.116;8.424;2023-04-03T12:57:18;24.40;41.90
22290;DHT22;11313;50.116;8.424;2023-04-03T12:59:44;24.50;42.00
22290;DHT22;11313;50.116;8.424;2023-04-03T13:02:30;24.50;41.90
22290;DHT22;11313;50.116;8.424;2023-04-03T13:04:58;24.50;41.90
22290;DHT22;11313;50.116;8.424;2023-04-03T13:07:30;24.50;41.90
22290;DHT22;11313;50.116;8.424;2023-04-03T13:15:39;24.40;41.90
22290;DHT22;11313;50.116;8.424;2023-04-03T13:18:21;24.40;41.90
22290;DHT22;11313;50.116;8.424;2023-04-03T13:20:48;24.40;41.90
22290;DHT22;11313;50.116;8.424;2023-04-03T13:23:17;24.50;41.90
22290;DHT22;11313;50.116;8.424;2023-04-03T13:25:46;24.40;41.90
22290;DHT22;11313;50.116;8.424;2023-04-03T13:28:16;24.40;42.60
22290;DHT22;11313;50.116;8.424;2023-04-03T13:31:13;24.40;41.90
22290;DHT22;11313;50.116;8.424;2023-04-03T13:34:07;24.40;41.90
22290;DHT22;11313;50.116;8.424;2023-04-03T13:36:42;24.40;42.00
22290;DHT22;11313;50.116;8.424;2023-04-03T13:41:50;24.40;42.00
22290;DHT22;11313;50.116;8.424;2023-04-03T13:46:56;24.40;42.00
22290;DHT22;11313;50.116;8.424;2023-04-03T13:49:34;24.40;42.00
22290;DHT22;11313;50.116;8.424;2023-04-03T13:52:03;24.40;42.00
22290;DHT22;11313;50.116;8.424;2023-04-03T13:54:48;24.40;42.00
22290;DHT22;11313;50.116;8.424;2023-04-03T13:57:16;24.40;42.00
22290;DHT22;11313;50.116;8.424;2023-04-03T13:59:42;24.40;42.00
22290;DHT22;11313;50.116;8.424;2023-04-03T14:07:02;24.40;42.10
22290;DHT22;11313;50.116;8.424;2023-04-03T14:09:28;24.40;42.10
22290;DHT22;11313;50.116;8.424;2023-04-03T14:12:02;24.40;42.10
22290;DHT22;11313;50.116;8.424;2023-04-03T14:14:33;24.40;42.00
22290;DHT22;11313;50.116;8.424;2023-04-03T14:17:01;24.40;42.00
22290;DHT22;11313;50.116;8.424;2023-04-03T14:19:34;24.40;42.10
22290;DHT22;11313;50.116;8.424;2023-04-03T14:22:20;24.40;42.00
22290;DHT22;11313;50.116;8.424;2023-04-03T14:24:48;24.40;42.00
22290;DHT22;11313;50.116;8.424;2023-04-03T14:27:21;24.40;42.30
22290;DHT22;11313;50.116;8.424;2023-04-03T14:29:48;24.40;42.00
22290;DHT22;11313;50.116;8.424;2023-04-03T14:32:16;24.40;42.00
22290;DHT22;11313;50.116;8.424;2023-04-03T14:34:43;24.40;42.10
22290;DHT22;11313;50.116;8.424;2023-04-03T14:37:18;24.40;42.00
22290;DHT22;11313;50.116;8.424;2023-04-03T14:39:44;24.50;42.00
22290;DHT22;11313;50.116;8.424;2023-04-03T14:42:13;24.50;42.00
22290;DHT22;11313;50.116;8.424;2023-04-03T14:44:39;24.50;42.00
22290;DHT22;11313;50.116;8.424;2023-04-03T14:47:05;24.50;42.00
22290;DHT22;11313;50.116;8.424;2023-04-03T14:49:30;24.50;42.00
22290;DHT22;11313;50.116;8.424;2023-04-03T14:51:57;24.50;42.00
22290;DHT22;11313;50.116;8.424;2023-04-03T14:54:23;24.50;41.90
22290;DHT22;11313;50.116;8.424;2023-04-03T14:56:53;24.50;42.00
22290;DHT22;11313;50.116;8.424;2023-04-03T14:59:20;24.50;42.00
22290;DHT22;11313;50.116;8.424;2023-04-03T15:01:47;24.50;42.00
22290;DHT22;11313;50.116;8.424;2023-04-03T15:04:18;24.50;41.90
22290;DHT22;11313;50.116;8.424;2023-04-03T15:06:44;24.60;41.90
22290;DHT22;11313;50.116;8.424;2023-04-03T15:09:30;24.60;41.80
22290;DHT22;11313;50.116;8.424;2023-04-03T15:11:56;24.60;41.80
22290;DHT22;11313;50.116;8.424;2023-04-03T15:14:22;24.50;41.70
22290;DHT22;11313;50.116;8.424;2023-04-03T15:16:48;24.60;41.80
22290;DHT22;11313;50.116;8.424;2023-04-03T15:19:14;24.60;41.80
22290;DHT22;11313;50.116;8.424;2023-04-03T15:21:40;24.60;41.80
22290;DHT22;11313;50.116;8.424;2023-04-03T15:24:06;24.60;41.80
22290;DHT22;11313;50.116;8.424;2023-04-03T15:26:32;24.60;41.70
22290;DHT22;11313;50.116;8.424;2023-04-03T15:28:58;24.70;41.70
22290;DHT22;11313;50.116;8.424;2023-04-03T15:31:23;24.70;41.70
22290;DHT22;11313;50.116;8.424;2023-04-03T15:33:49;24.70;41.60
22290;DHT22;11313;50.116;8.424;2023-04-03T15:36:14;24.70;41.70
22290;DHT22;11313;50.116;8.424;2023-04-03T15:38:40;24.70;41.70
22290;DHT22;11313;50.116;8.424;2023-04-03T15:41:05;24.70;41.60
22290;DHT22;11313;50.116;8.424;2023-04-03T15:43:31;24.70;41.60
22290;DHT22;11313;50.116;8.424;2023-04-03T15:45:59;24.70;41.60
22290;DHT22;11313;50.116;8.424;2023-04-03T15:48:25;24.70;41.60
22290;DHT22;11313;50.116;8.424;2023-04-03T15:50:51;24.70;41.60
22290;DHT22;11313;50.116;8.424;2023-04-03T15:53:17;24.70;42.20
22290;DHT22;11313;50.116;8.424;2023-04-03T15:55:42;24.70;42.30
22290;DHT22;11313;50.116;8.424;2023-04-03T15:58:08;24.70;41.60
22290;DHT22;11313;50.116;8.424;2023-04-03T16:00:35;24.70;41.50
22290;DHT22;11313;50.116;8.424;2023-04-03T16:03:05;24.70;41.50
22290;DHT22;11313;50.116;8.424;2023-04-03T16:05:31;24.70;41.50
22290;DHT22;11313;50.116;8.424;2023-04-03T16:07:58;24.70;41.50
22290;DHT22;11313;50.116;8.424;2023-04-03T16:10:25;24.70;41.50
22290;DHT22;11313;50.116;8.424;2023-04-03T16:12:51;24.70;41.50
22290;DHT22;11313;50.116;8.424;2023-04-03T16:15:17;24.70;41.50
22290;DHT22;11313;50.116;8.424;2023-04-03T16:17:42;24.70;41.50
22290;DHT22;11313;50.116;8.424;2023-04-03T16:20:09;24.70;41.50
22290;DHT22;11313;50.116;8.424;2023-04-03T16:22:35;24.70;41.50
22290;DHT22;11313;50.116;8.424;2023-04-03T16:25:01;24.70;41.50
22290;DHT22;11313;50.116;8.424;2023-04-03T16:27:27;24.70;41.50
22290;DHT22;11313;50.116;8.424;2023-04-03T16:29:58;24.70;41.50
22290;DHT22;11313;50.116;8.424;2023-04-03T16:32:25;24.70;41.60
22290;DHT22;11313;50.116;8.424;2023-04-03T16:34:52;24.70;41.60
22290;DHT22;11313;50.116;8.424;2023-04-03T16:37:17;24.70;41.60
22290;DHT22;11313;50.116;8.424;2023-04-03T16:39:43;24.70;41.50
22290;DHT22;11313;50.116;8.424;2023-04-03T16:42:09;24.70;41.50
22290;DHT22;11313;50.116;8.424;2023-04-03T16:44:35;24.70;41.60
22290;DHT22;11313;50.116;8.424;2023-04-03T16:47:01;24.70;41.50
22290;DHT22;11313;50.116;8.424;2023-04-03T16:49:27;24.70;41.50
22290;DHT22;11313;50.116;8.424;2023-04-03T16:51:57;24.70;41.60
22290;DHT22;11313;50.116;8.424;2023-04-03T16:54:23;24.70;41.60
22290;DHT22;11313;50.116;8.424;2023-04-03T16:56:48;24.70;41.60
22290;DHT22;11313;50.116;8.424;2023-04-03T16:59:14;24.70;41.60
22290;DHT22;11313;50.116;8.424;2023-04-03T17:01:39;24.70;41.70
22290;DHT22;11313;50.116;8.424;2023-04-03T17:04:05;24.70;41.70
22290;DHT22;11313;50.116;8.424;2023-04-03T17:06:31;24.70;41.70
22290;DHT22;11313;50.116;8.424;2023-04-03T17:08:56;24.70;41.70
22290;DHT22;11313;50.116;8.424;2023-04-03T17:11:22;24.70;41.80
22290;DHT22;11313;50.116;8.424;2023-04-03T17:13:47;24.70;41.80
22290;DHT22;11313;50.116;8.424;2023-04-03T17:16:15;24.70;41.80
22290;DHT22;11313;50.116;8.424;2023-04-03T17:18:41;24.60;41.80
22290;DHT22;11313;50.116;8.424;2023-04-03T17:21:06;24.60;41.90
22290;DHT22;11313;50.116;8.424;2023-04-03T17:23:33;24.60;41.90
22290;DHT22;11313;50.116;8.424;2023-04-03T17:26:01;24.60;41.90
22290;DHT22;11313;50.116;8.424;2023-04-03T17:28:26;24.60;42.00
22290;DHT22;11313;50.116;8.424;2023-04-03T17:30:57;24.60;42.00
22290;DHT22;11313;50.116;8.424;2023-04-03T17:33:24;24.60;42.00